Time;durP1;ratioP1;P1;durP2;ratioP2;P2;SDS_P1;SDS_P2;PMS_P1;PMS_P2;Temp;Humidity;BMP_temperature;BMP_pressure;BME280_temperature;BME280_humidity;BME280_pressure;Samples;Min_cycle;Max_cycle;Signal;HPM_P1;HPM_P2
2022/07/01 00:02:24;;;;;;;27.83;14.88;;;;;;;;;;5055221;28;20022;-75
2022/07/01 00:04:50;;;;;;;22.75;13.18;;;;;;;;;;5055501;28;20021;-77
2022/07/01 00:07:16;;;;;;;24.42;14.77;;;;;;;;;;5054998;28;20021;-75
2022/07/01 00:09:43;;;;;;;29.52;16.35;;;;;;;;;;5055197;28;20021;-75
2022/07/01 00:12:09;;;;;;;23.60;14.40;;;;;;;;;;5054869;28;20040;-75
2022/07/01 00:14:35;;;;;;;26.08;15.35;;;;;;;;;;5045781;28;20064;-77
2022/07/01 00:17:01;;;;;;;28.40;15.25;;;;;;;;;;5035104;28;20026;-75
2022/07/01 00:19:27;;;;;;;25.92;14.77;;;;;;;;;;5034657;28;20025;-75
2022/07/01 00:21:54;;;;;;;24.20;14.65;;;;;;;;;;5034687;28;20490;-75
2022/07/01 00:24:20;;;;;;;24.83;14.52;;;;;;;;;;5034724;28;20045;-77
2022/07/01 00:26:46;;;;;;;22.20;13.07;;;;;;;;;;5034799;28;20017;-75
2022/07/01 00:29:12;;;;;;;25.33;14.57;;;;;;;;;;5034591;28;20040;-75
2022/07/01 00:31:38;;;;;;;23.50;14.18;;;;;;;;;;5034718;28;20575;-75
2022/07/01 00:34:04;;;;;;;27.33;14.30;;;;;;;;;;5034344;28;20029;-75
2022/07/01 00:36:30;;;;;;;25.30;14.27;;;;;;;;;;5034345;28;20040;-75
2022/07/01 00:38:56;;;;;;;31.73;14.85;;;;;;;;;;5034316;28;20033;-76
2022/07/01 00:41:22;;;;;;;26.55;14.18;;;;;;;;;;5034343;28;20386;-75
2022/07/01 00:43:48;;;;;;;27.10;13.45;;;;;;;;;;5034443;28;20018;-75
2022/07/01 00:46:14;;;;;;;24.70;13.88;;;;;;;;;;5049289;28;20095;-75
2022/07/01 00:48:41;;;;;;;27.15;14.52;;;;;;;;;;5054123;28;20029;-75
2022/07/01 00:51:07;;;;;;;29.55;15.40;;;;;;;;;;5054116;28;20044;-75
2022/07/01 00:53:33;;;;;;;27.55;15.25;;;;;;;;;;5053977;28;20025;-75
2022/07/01 00:55:59;;;;;;;27.48;15.70;;;;;;;;;;5054031;28;20078;-75
2022/07/01 00:58:29;;;;;;;31.15;16.42;;;;;;;;;;5053856;28;20514;-75
2022/07/01 01:00:56;;;;;;;33.88;17.85;;;;;;;;;;5054032;28;20082;-75
2022/07/01 01:03:22;;;;;;;38.75;19.75;;;;;;;;;;5054028;28;20025;-76
2022/07/01 01:05:50;;;;;;;36.83;19.60;;;;;;;;;;5053845;28;20040;-75
2022/07/01 01:08:16;;;;;;;38.78;19.38;;;;;;;;;;5054181;28;20028;-75
2022/07/01 01:10:43;;;;;;;40.45;20.85;;;;;;;;;;5053950;28;20105;-75
2022/07/01 01:13:09;;;;;;;43.55;22.40;;;;;;;;;;5053833;28;20044;-76
2022/07/01 01:15:37;;;;;;;40.80;21.35;;;;;;;;;;5036413;28;20032;-75
2022/07/01 01:18:03;;;;;;;42.55;22.17;;;;;;;;;;5033759;28;20471;-75
2022/07/01 01:20:33;;;;;;;42.90;22.17;;;;;;;;;;5033660;28;20029;-77
2022/07/01 01:23:00;;;;;;;53.67;24.25;;;;;;;;;;5032756;28;20407;-75
2022/07/01 01:25:26;;;;;;;47.20;23.75;;;;;;;;;;5033662;28;20022;-75
2022/07/01 01:27:52;;;;;;;47.47;25.63;;;;;;;;;;5033808;28;20030;-77
2022/07/01 01:30:18;;;;;;;54.03;25.48;;;;;;;;;;5033848;28;20125;-77
2022/07/01 01:32:44;;;;;;;48.25;26.67;;;;;;;;;;5033315;28;20468;-75
2022/07/01 01:35:10;;;;;;;52.85;27.02;;;;;;;;;;5033300;28;20041;-75
2022/07/01 01:37:37;;;;;;;49.45;27.27;;;;;;;;;;5033369;28;20079;-75
2022/07/01 01:40:03;;;;;;;48.95;26.35;;;;;;;;;;5033258;28;20033;-75
2022/07/01 01:42:30;;;;;;;48.72;25.67;;;;;;;;;;5033317;28;20022;-75
2022/07/01 01:44:56;;;;;;;50.90;26.83;;;;;;;;;;5033103;28;20028;-75
2022/07/01 01:47:22;;;;;;;51.55;28.73;;;;;;;;;;5033013;28;20049;-75
2022/07/01 01:49:49;;;;;;;55.10;27.23;;;;;;;;;;5033149;28;20460;-75
2022/07/01 01:52:15;;;;;;;53.90;28.65;;;;;;;;;;5033534;28;20033;-75
2022/07/01 01:54:41;;;;;;;51.13;27.90;;;;;;;;;;5033747;28;20049;-75
2022/07/01 01:57:07;;;;;;;55.30;28.85;;;;;;;;;;5033252;28;20056;-75
2022/07/01 01:59:33;;;;;;;58.47;28.73;;;;;;;;;;5033217;28;20025;-75
2022/07/01 02:01:59;;;;;;;54.33;29.02;;;;;;;;;;5033522;28;20034;-75
2022/07/01 02:04:25;;;;;;;60.35;28.98;;;;;;;;;;5033773;28;20029;-75
2022/07/01 02:06:52;;;;;;;53.78;27.00;;;;;;;;;;5033420;28;20041;-75
2022/07/01 02:09:18;;;;;;;50.45;26.45;;;;;;;;;;5032885;28;20038;-75
2022/07/01 02:11:44;;;;;;;50.83;26.88;;;;;;;;;;5042161;28;20086;-77
2022/07/01 02:14:10;;;;;;;49.05;26.10;;;;;;;;;;5052491;28;20116;-75
2022/07/01 02:16:36;;;;;;;54.90;26.67;;;;;;;;;;5052673;28;20104;-75
2022/07/01 02:19:02;;;;;;;50.20;25.48;;;;;;;;;;5052306;28;20115;-75
2022/07/01 02:21:28;;;;;;;48.10;25.13;;;;;;;;;;5052852;28;20017;-75
2022/07/01 02:23:54;;;;;;;47.90;25.75;;;;;;;;;;5052535;28;20429;-75
2022/07/01 02:26:20;;;;;;;47.53;26.45;;;;;;;;;;5052656;28;20036;-75
2022/07/01 02:28:46;;;;;;;50.80;26.13;;;;;;;;;;5052298;28;20052;-75
2022/07/01 02:31:13;;;;;;;56.35;27.13;;;;;;;;;;5052039;28;20546;-75
2022/07/01 02:33:39;;;;;;;56.95;27.85;;;;;;;;;;5052357;28;20029;-75
2022/07/01 02:36:05;;;;;;;52.35;26.88;;;;;;;;;;5052268;28;20017;-75
2022/07/01 02:38:31;;;;;;;53.88;26.75;;;;;;;;;;5052085;28;20032;-75
2022/07/01 02:40:57;;;;;;;53.55;26.63;;;;;;;;;;5052316;28;20387;-75
2022/07/01 02:43:23;;;;;;;58.17;26.95;;;;;;;;;;5052137;28;20051;-75
2022/07/01 02:45:49;;;;;;;55.00;26.85;;;;;;;;;;5039070;28;20136;-75
2022/07/01 02:48:15;;;;;;;54.08;27.60;;;;;;;;;;5035628;28;20495;-76
2022/07/01 02:50:41;;;;;;;55.88;26.75;;;;;;;;;;5033742;28;20036;-76
2022/07/01 02:53:07;;;;;;;53.38;26.90;;;;;;;;;;5034112;28;20100;-76
2022/07/01 02:55:33;;;;;;;52.58;25.92;;;;;;;;;;5038364;28;20039;-76
2022/07/01 02:57:59;;;;;;;58.53;27.27;;;;;;;;;;5053146;28;20052;-76
2022/07/01 03:00:26;;;;;;;50.42;25.48;;;;;;;;;;5053340;28;20069;-76
2022/07/01 03:02:52;;;;;;;57.30;25.17;;;;;;;;;;5053793;28;20032;-76
2022/07/01 03:05:18;;;;;;;55.72;26.27;;;;;;;;;;5053214;28;20478;-75
2022/07/01 03:07:44;;;;;;;56.15;25.27;;;;;;;;;;5052559;28;20104;-75
2022/07/01 03:10:11;;;;;;;55.78;25.55;;;;;;;;;;5052065;28;20032;-76
2022/07/01 03:12:38;;;;;;;56.05;24.92;;;;;;;;;;5052257;28;20121;-76
2022/07/01 03:15:05;;;;;;;52.83;26.02;;;;;;;;;;5052375;28;20383;-76
2022/07/01 03:17:32;;;;;;;55.50;26.05;;;;;;;;;;5053145;28;20021;-75
2022/07/01 03:19:58;;;;;;;64.88;27.80;;;;;;;;;;5052438;28;20052;-76
2022/07/01 03:22:28;;;;;;;55.15;25.65;;;;;;;;;;5052365;28;20029;-76
2022/07/01 03:24:54;;;;;;;56.95;24.10;;;;;;;;;;5052218;28;20486;-76
2022/07/01 03:27:21;;;;;;;56.85;25.65;;;;;;;;;;5052005;28;20563;-75
2022/07/01 03:29:47;;;;;;;61.33;25.75;;;;;;;;;;5052113;28;20536;-75
2022/07/01 03:32:13;;;;;;;58.80;25.48;;;;;;;;;;5052642;28;20029;-76
2022/07/01 03:34:40;;;;;;;63.60;26.05;;;;;;;;;;5053225;28;20082;-76
2022/07/01 03:37:07;;;;;;;60.90;26.23;;;;;;;;;;5052895;28;20041;-75
2022/07/01 03:39:33;;;;;;;70.93;27.90;;;;;;;;;;5051647;28;20071;-75
2022/07/01 03:41:59;;;;;;;65.30;27.55;;;;;;;;;;5052288;28;20440;-76
2022/07/01 03:44:26;;;;;;;66.57;26.98;;;;;;;;;;5051728;28;20025;-75
2022/07/01 03:46:52;;;;;;;71.78;29.23;;;;;;;;;;5052339;28;20044;-76
2022/07/01 03:49:18;;;;;;;69.65;28.00;;;;;;;;;;5052337;28;20554;-75
2022/07/01 03:51:44;;;;;;;63.03;27.75;;;;;;;;;;5052872;28;20021;-75
2022/07/01 03:56:55;;;;;;;69.75;27.23;;;;;;;;;;5051976;28;20506;-75
2022/07/01 03:59:21;;;;;;;62.08;25.02;;;;;;;;;;5051187;28;20369;-75
2022/07/01 04:01:47;;;;;;;69.00;26.67;;;;;;;;;;5051716;28;20072;-75
2022/07/01 04:04:13;;;;;;;68.38;27.15;;;;;;;;;;5051625;28;20147;-76
2022/07/01 04:06:39;;;;;;;60.83;26.65;;;;;;;;;;5051486;28;20033;-76
2022/07/01 04:09:05;;;;;;;63.30;29.08;;;;;;;;;;5051045;28;20044;-75
2022/07/01 04:11:32;;;;;;;69.72;28.90;;;;;;;;;;5051135;28;20040;-75
2022/07/01 04:13:58;;;;;;;56.28;24.75;;;;;;;;;;5050890;28;20049;-76
2022/07/01 04:16:25;;;;;;;68.40;28.40;;;;;;;;;;5051184;28;20036;-76
2022/07/01 04:18:51;;;;;;;63.28;26.05;;;;;;;;;;5051102;28;20098;-76
2022/07/01 04:24:03;;;;;;;69.88;29.60;;;;;;;;;;5054570;28;20559;-76
2022/07/01 04:26:29;;;;;;;67.60;28.23;;;;;;;;;;5054750;28;20029;-76
2022/07/01 04:28:55;;;;;;;60.15;26.05;;;;;;;;;;5054411;28;20031;-75
2022/07/01 04:31:22;;;;;;;60.95;24.38;;;;;;;;;;5054552;28;20029;-75
2022/07/01 04:33:48;;;;;;;52.42;22.90;;;;;;;;;;5054591;28;20474;-76
2022/07/01 04:36:15;;;;;;;48.35;21.98;;;;;;;;;;5053947;28;20032;-76
2022/07/01 04:38:41;;;;;;;59.38;23.27;;;;;;;;;;5053892;28;20487;-76
2022/07/01 04:43:52;;;;;;;51.08;23.73;;;;;;;;;;5048780;28;20462;-75
2022/07/01 04:46:18;;;;;;;51.95;23.27;;;;;;;;;;5053772;28;20033;-76
2022/07/01 04:48:44;;;;;;;58.38;24.33;;;;;;;;;;5053771;28;20028;-76
2022/07/01 04:51:10;;;;;;;56.63;24.73;;;;;;;;;;5053631;28;20036;-76
2022/07/01 04:53:36;;;;;;;52.85;24.00;;;;;;;;;;5053706;28;20021;-75
2022/07/01 04:56:02;;;;;;;52.70;25.30;;;;;;;;;;5053387;28;20033;-76
2022/07/01 04:58:28;;;;;;;53.83;24.42;;;;;;;;;;5053564;28;20388;-76
2022/07/01 05:00:54;;;;;;;46.92;23.35;;;;;;;;;;5053527;28;20437;-75
2022/07/01 05:03:20;;;;;;;47.10;23.20;;;;;;;;;;5053791;28;20027;-75
2022/07/01 05:05:46;;;;;;;52.58;22.42;;;;;;;;;;5053425;28;20039;-76
2022/07/01 05:08:12;;;;;;;49.88;22.45;;;;;;;;;;5053385;28;20013;-76
2022/07/01 05:10:38;;;;;;;47.15;23.02;;;;;;;;;;5053365;28;20021;-76
2022/07/01 05:13:04;;;;;;;48.75;22.17;;;;;;;;;;5053192;28;20021;-75
2022/07/01 05:15:30;;;;;;;52.35;24.60;;;;;;;;;;5052998;28;20021;-75
2022/07/01 05:23:26;;;;;;;42.95;22.75;;;;;;;;;;5052454;28;20028;-76
2022/07/01 05:25:52;;;;;;;54.70;24.73;;;;;;;;;;5050612;28;20075;-76
2022/07/01 05:28:18;;;;;;;50.05;24.15;;;;;;;;;;5053054;28;20025;-76
2022/07/01 05:30:44;;;;;;;50.75;24.85;;;;;;;;;;5053166;28;20021;-76
2022/07/01 05:33:10;;;;;;;53.00;26.25;;;;;;;;;;5052298;28;20437;-76
2022/07/01 05:35:36;;;;;;;50.28;26.92;;;;;;;;;;5052903;28;20017;-76
2022/07/01 05:38:02;;;;;;;51.47;26.20;;;;;;;;;;5052895;28;20416;-76
2022/07/01 05:40:28;;;;;;;48.92;24.60;;;;;;;;;;5052843;28;20060;-76
2022/07/01 05:42:55;;;;;;;52.97;26.38;;;;;;;;;;5052770;28;20028;-76
2022/07/01 05:45:21;;;;;;;50.78;24.63;;;;;;;;;;5052686;28;20525;-76
2022/07/01 05:47:47;;;;;;;51.33;25.15;;;;;;;;;;5052711;28;20025;-75
2022/07/01 05:50:13;;;;;;;45.45;24.10;;;;;;;;;;5052757;28;20477;-76
2022/07/01 05:52:39;;;;;;;43.78;24.35;;;;;;;;;;5052742;28;20410;-76
2022/07/01 05:55:06;;;;;;;41.08;23.10;;;;;;;;;;5052717;28;20025;-76
2022/07/01 05:57:32;;;;;;;41.28;23.10;;;;;;;;;;5054399;28;20060;-76
2022/07/01 05:59:58;;;;;;;38.50;21.80;;;;;;;;;;5053392;28;20053;-76
2022/07/01 06:02:24;;;;;;;41.40;22.15;;;;;;;;;;5051104;28;20069;-76
2022/07/01 06:04:50;;;;;;;40.63;22.80;;;;;;;;;;5052752;28;20033;-76
2022/07/01 06:07:16;;;;;;;39.55;22.52;;;;;;;;;;5052627;28;20032;-76
2022/07/01 06:09:42;;;;;;;41.13;21.52;;;;;;;;;;5052713;28;20040;-76
2022/07/01 06:12:09;;;;;;;37.20;21.92;;;;;;;;;;5052781;28;20021;-76
2022/07/01 06:14:37;;;;;;;40.50;20.05;;;;;;;;;;5047819;28;20025;-76
2022/07/01 06:17:03;;;;;;;34.47;20.60;;;;;;;;;;5052743;28;20124;-75
2022/07/01 06:19:29;;;;;;;38.83;20.38;;;;;;;;;;5052267;28;20041;-76
2022/07/01 06:21:56;;;;;;;35.58;19.67;;;;;;;;;;5052564;28;20091;-76
2022/07/01 06:24:22;;;;;;;33.22;19.42;;;;;;;;;;5052499;28;20075;-76
2022/07/01 06:26:48;;;;;;;36.35;19.88;;;;;;;;;;5052467;28;20371;-75
2022/07/01 06:29:14;;;;;;;37.28;18.50;;;;;;;;;;5052352;28;20108;-76
2022/07/01 06:31:40;;;;;;;32.92;18.00;;;;;;;;;;5052293;28;20028;-76
2022/07/01 06:34:06;;;;;;;30.40;16.52;;;;;;;;;;5052171;28;20029;-76
2022/07/01 06:36:32;;;;;;;30.75;17.10;;;;;;;;;;5052187;28;20459;-76
2022/07/01 06:38:58;;;;;;;33.20;18.45;;;;;;;;;;5051918;28;20036;-76
2022/07/01 06:41:27;;;;;;;28.10;16.20;;;;;;;;;;5052234;28;20025;-76
2022/07/01 06:43:56;;;;;;;28.10;17.17;;;;;;;;;;5052169;28;20313;-76
2022/07/01 06:46:22;;;;;;;33.72;16.83;;;;;;;;;;5051558;28;20021;-75
2022/07/01 06:48:49;;;;;;;43.67;18.08;;;;;;;;;;5051454;28;20096;-77
2022/07/01 06:51:15;;;;;;;32.92;17.67;;;;;;;;;;5051591;28;20028;-77
2022/07/01 06:53:44;;;;;;;36.85;16.73;;;;;;;;;;5051483;28;20051;-77
2022/07/01 06:56:10;;;;;;;30.23;15.90;;;;;;;;;;5048641;28;20025;-77
2022/07/01 06:58:37;;;;;;;31.33;16.67;;;;;;;;;;5050797;28;20036;-76
2022/07/01 07:01:04;;;;;;;30.17;15.27;;;;;;;;;;5050751;28;20047;-76
2022/07/01 07:03:31;;;;;;;38.58;16.98;;;;;;;;;;5055422;28;20037;-77
2022/07/01 07:06:00;;;;;;;26.38;14.57;;;;;;;;;;5070050;28;20088;-77
2022/07/01 07:08:26;;;;;;;26.05;14.68;;;;;;;;;;5066455;28;20036;-77
2022/07/01 07:10:52;;;;;;;28.83;14.70;;;;;;;;;;5059152;28;20037;-74
2022/07/01 07:13:18;;;;;;;23.88;12.40;;;;;;;;;;5050672;28;20549;-77
2022/07/01 07:15:44;;;;;;;24.95;13.50;;;;;;;;;;5051757;28;20040;-76
2022/07/01 07:18:10;;;;;;;27.70;13.57;;;;;;;;;;5051441;28;20390;-76
2022/07/01 07:20:36;;;;;;;22.20;11.88;;;;;;;;;;5051229;28;20044;-78
2022/07/01 07:23:02;;;;;;;23.10;12.30;;;;;;;;;;5051691;28;20386;-77
2022/07/01 07:25:28;;;;;;;22.45;11.55;;;;;;;;;;5052308;28;20032;-78
2022/07/01 07:27:55;;;;;;;21.15;11.05;;;;;;;;;;5051872;28;20032;-76
2022/07/01 07:30:21;;;;;;;18.35;10.70;;;;;;;;;;5051966;28;20082;-75
2022/07/01 07:32:47;;;;;;;20.80;8.77;;;;;;;;;;5051709;28;20029;-75
2022/07/01 07:35:13;;;;;;;19.88;9.75;;;;;;;;;;5051459;28;20033;-74
2022/07/01 07:37:39;;;;;;;14.35;9.15;;;;;;;;;;5051494;28;20079;-75
2022/07/01 07:40:07;;;;;;;22.67;9.75;;;;;;;;;;5051608;28;20020;-75
2022/07/01 07:42:33;;;;;;;16.80;8.05;;;;;;;;;;5051520;28;20382;-73
2022/07/01 07:45:01;;;;;;;18.58;8.98;;;;;;;;;;5051607;28;20045;-76
2022/07/01 07:47:27;;;;;;;13.60;8.02;;;;;;;;;;5052219;28;20017;-75
2022/07/01 07:49:53;;;;;;;14.63;7.57;;;;;;;;;;5051365;28;20364;-75
2022/07/01 07:52:19;;;;;;;16.98;8.38;;;;;;;;;;5051517;28;20476;-77
2022/07/01 07:54:45;;;;;;;19.92;7.97;;;;;;;;;;5051264;28;20028;-78
2022/07/01 07:57:11;;;;;;;11.05;5.75;;;;;;;;;;5054041;28;20040;-77
2022/07/01 07:59:38;;;;;;;13.35;6.10;;;;;;;;;;5054919;28;20048;-77
2022/07/01 08:02:04;;;;;;;9.50;5.53;;;;;;;;;;5055300;28;20013;-78
2022/07/01 08:04:30;;;;;;;10.55;4.88;;;;;;;;;;5055496;28;20029;-76
2022/07/01 08:06:56;;;;;;;5.55;4.30;;;;;;;;;;5055268;28;20100;-75
2022/07/01 08:09:22;;;;;;;8.85;4.32;;;;;;;;;;5055058;28;20029;-76
2022/07/01 08:11:48;;;;;;;9.80;4.03;;;;;;;;;;5055036;28;20036;-75
2022/07/01 08:14:14;;;;;;;9.07;4.15;;;;;;;;;;5052833;28;20045;-77
2022/07/01 08:16:40;;;;;;;7.88;4.60;;;;;;;;;;5054813;28;20187;-76
2022/07/01 08:19:06;;;;;;;13.68;4.30;;;;;;;;;;5053158;28;20059;-76
2022/07/01 08:21:32;;;;;;;12.50;3.75;;;;;;;;;;5054278;28;20032;-76
2022/07/01 08:23:58;;;;;;;10.00;3.72;;;;;;;;;;5054535;28;20430;-75
2022/07/01 08:26:24;;;;;;;12.02;3.60;;;;;;;;;;5054773;28;20021;-76
2022/07/01 08:28:50;;;;;;;13.15;2.90;;;;;;;;;;5056051;28;20032;-78
2022/07/01 08:31:16;;;;;;;9.35;2.67;;;;;;;;;;5055884;28;20412;-78
2022/07/01 08:33:42;;;;;;;9.25;3.10;;;;;;;;;;5055568;28;20100;-78
2022/07/01 08:36:10;;;;;;;7.45;2.75;;;;;;;;;;5055308;28;20092;-78
2022/07/01 08:38:37;;;;;;;8.82;2.70;;;;;;;;;;5054679;28;20104;-79
2022/07/01 08:41:04;;;;;;;12.38;2.92;;;;;;;;;;5054662;28;20048;-79
2022/07/01 08:43:30;;;;;;;7.32;2.50;;;;;;;;;;5054733;28;20508;-79
2022/07/01 08:45:58;;;;;;;9.60;2.38;;;;;;;;;;5054445;28;20024;-80
2022/07/01 08:48:24;;;;;;;10.98;2.25;;;;;;;;;;5054600;28;20017;-79
2022/07/01 08:50:51;;;;;;;6.45;1.73;;;;;;;;;;5054369;28;20072;-79
2022/07/01 08:53:17;;;;;;;7.05;2.00;;;;;;;;;;5055217;28;20025;-77
2022/07/01 08:58:28;;;;;;;7.03;1.73;;;;;;;;;;5054658;28;20051;-78
2022/07/01 09:01:11;;;;;;;10.63;2.22;;;;;;;;;;5053393;28;20024;-78
2022/07/01 09:03:37;;;;;;;7.68;1.73;;;;;;;;;;5055022;28;20033;-78
2022/07/01 09:06:11;;;;;;;8.85;2.00;;;;;;;;;;5054871;28;20070;-79
2022/07/01 09:08:37;;;;;;;10.45;2.10;;;;;;;;;;5054255;28;20024;-80
2022/07/01 09:11:11;;;;;;;6.13;1.35;;;;;;;;;;5055177;28;20494;-79
2022/07/01 09:13:37;;;;;;;7.50;1.77;;;;;;;;;;5053666;28;20028;-83
2022/07/01 09:16:10;;;;;;;8.65;2.08;;;;;;;;;;5054154;28;20180;-80
2022/07/01 09:18:36;;;;;;;6.18;1.55;;;;;;;;;;5054790;28;20114;-81
2022/07/01 09:21:07;;;;;;;5.78;1.40;;;;;;;;;;5055023;28;20028;-81
2022/07/01 09:23:33;;;;;;;4.95;1.58;;;;;;;;;;5054947;28;20104;-80
2022/07/01 09:25:59;;;;;;;9.02;1.48;;;;;;;;;;5054950;28;20021;-81
2022/07/01 09:28:27;;;;;;;8.88;1.52;;;;;;;;;;5054562;28;20013;-83
2022/07/01 09:30:54;;;;;;;6.30;1.40;;;;;;;;;;5054167;28;20026;-81
2022/07/01 09:33:25;;;;;;;4.15;1.30;;;;;;;;;;5054166;28;20028;-80
2022/07/01 09:35:52;;;;;;;3.83;0.90;;;;;;;;;;5054168;28;20124;-79
2022/07/01 09:38:19;;;;;;;3.63;1.10;;;;;;;;;;5054582;28;20390;-79
2022/07/01 09:40:53;;;;;;;5.28;0.90;;;;;;;;;;5054294;28;20028;-79
2022/07/01 09:43:25;;;;;;;5.45;0.90;;;;;;;;;;5054350;28;20501;-80
2022/07/01 09:45:59;;;;;;;4.78;1.17;;;;;;;;;;5054023;28;20475;-81
2022/07/01 09:48:42;;;;;;;5.15;1.10;;;;;;;;;;5054591;28;20032;-79
2022/07/01 09:51:09;;;;;;;5.18;1.00;;;;;;;;;;5054146;28;20033;-80
2022/07/01 09:53:35;;;;;;;25.10;5.15;;;;;;;;;;5054109;28;20099;-80
2022/07/01 09:56:01;;;;;;;8.48;2.15;;;;;;;;;;5053948;28;20032;-80
2022/07/01 09:58:28;;;;;;;4.70;0.85;;;;;;;;;;5054084;28;20158;-80
2022/07/01 10:00:54;;;;;;;2.65;0.77;;;;;;;;;;5053718;28;20033;-81
2022/07/01 10:03:21;;;;;;;3.05;0.82;;;;;;;;;;5053915;28;20419;-80
2022/07/01 10:05:51;;;;;;;4.50;0.77;;;;;;;;;;5054015;28;20363;-81
2022/07/01 10:08:20;;;;;;;4.88;0.80;;;;;;;;;;5054132;28;20099;-81
2022/07/01 10:10:49;;;;;;;6.15;0.90;;;;;;;;;;5053795;28;20055;-81
2022/07/01 10:13:17;;;;;;;3.50;0.60;;;;;;;;;;5054125;28;20378;-81
2022/07/01 10:15:48;;;;;;;3.60;0.90;;;;;;;;;;5035300;28;20376;-81
2022/07/01 10:18:24;;;;;;;5.70;0.50;;;;;;;;;;5033384;28;20025;-81
2022/07/01 10:20:51;;;;;;;4.75;0.63;;;;;;;;;;5033778;28;20087;-79
2022/07/01 10:23:19;;;;;;;3.58;0.50;;;;;;;;;;5033979;28;20026;-80
2022/07/01 10:25:46;;;;;;;3.95;0.70;;;;;;;;;;5053087;28;20025;-79
2022/07/01 10:28:27;;;;;;;3.90;0.70;;;;;;;;;;5052833;28;20027;-80
2022/07/01 10:30:57;;;;;;;2.13;0.50;;;;;;;;;;5053195;28;20025;-80
2022/07/01 10:33:29;;;;;;;2.15;0.50;;;;;;;;;;5053339;28;20025;-80
2022/07/01 10:35:55;;;;;;;3.28;0.40;;;;;;;;;;5052801;28;20020;-81
2022/07/01 10:38:21;;;;;;;3.03;0.73;;;;;;;;;;5052243;28;20037;-78
2022/07/01 10:40:50;;;;;;;1.15;0.40;;;;;;;;;;5052922;28;20036;-80
2022/07/01 10:43:17;;;;;;;5.65;0.70;;;;;;;;;;5054691;28;20025;-81
2022/07/01 10:45:44;;;;;;;6.03;1.00;;;;;;;;;;5052122;28;20023;-76
2022/07/01 10:48:19;;;;;;;2.03;0.55;;;;;;;;;;5054476;28;20032;-80
2022/07/01 10:50:49;;;;;;;3.70;0.70;;;;;;;;;;5054431;28;20017;-81
2022/07/01 10:53:15;;;;;;;4.57;0.77;;;;;;;;;;5052751;28;20467;-81
2022/07/01 10:55:45;;;;;;;4.72;0.90;;;;;;;;;;5047831;28;20035;-79
2022/07/01 10:58:11;;;;;;;5.57;0.82;;;;;;;;;;5053807;28;20045;-80
2022/07/01 11:00:41;;;;;;;3.53;1.02;;;;;;;;;;5054140;28;20032;-81
2022/07/01 11:03:08;;;;;;;4.32;0.90;;;;;;;;;;5046564;28;20032;-80
2022/07/01 11:05:36;;;;;;;4.55;0.80;;;;;;;;;;5054488;28;20506;-79
2022/07/01 11:08:02;;;;;;;3.63;0.82;;;;;;;;;;5058345;28;20021;-79
2022/07/01 11:10:28;;;;;;;5.30;0.80;;;;;;;;;;5053735;28;20029;-80
2022/07/01 11:12:54;;;;;;;4.03;0.82;;;;;;;;;;5052949;28;20036;-79
2022/07/01 11:15:22;;;;;;;4.72;1.13;;;;;;;;;;5050769;28;20037;-79
2022/07/01 11:17:49;;;;;;;3.25;0.80;;;;;;;;;;5054757;28;20017;-79
2022/07/01 11:20:15;;;;;;;4.80;0.70;;;;;;;;;;5052341;28;20021;-80
2022/07/01 11:22:41;;;;;;;3.33;0.70;;;;;;;;;;5060665;28;20474;-80
2022/07/01 11:25:08;;;;;;;2.35;0.75;;;;;;;;;;5055596;28;20115;-77
2022/07/01 11:27:35;;;;;;;2.67;0.80;;;;;;;;;;5048017;28;20175;-78
2022/07/01 11:30:03;;;;;;;4.38;0.63;;;;;;;;;;5053016;28;20110;-81
2022/07/01 11:32:34;;;;;;;4.38;0.40;;;;;;;;;;5055092;28;20025;-80
2022/07/01 11:35:01;;;;;;;3.17;0.60;;;;;;;;;;5054261;28;20425;-80
2022/07/01 11:40:14;;;;;;;2.63;0.60;;;;;;;;;;5056621;28;20528;-79
2022/07/01 11:42:41;;;;;;;3.97;0.60;;;;;;;;;;5061920;28;20028;-77
2022/07/01 11:45:07;;;;;;;5.30;0.50;;;;;;;;;;5056937;28;20024;-80
2022/07/01 11:47:33;;;;;;;2.53;0.43;;;;;;;;;;5062645;28;20390;-79
2022/07/01 11:50:00;;;;;;;1.83;0.60;;;;;;;;;;5064403;28;20036;-77
2022/07/01 11:52:26;;;;;;;4.50;0.60;;;;;;;;;;5075307;28;20117;-77
2022/07/01 11:54:54;;;;;;;2.33;0.50;;;;;;;;;;5074566;28;20059;-77
2022/07/01 11:57:24;;;;;;;1.80;0.73;;;;;;;;;;5056094;28;20641;-77
2022/07/01 11:59:51;;;;;;;2.95;0.70;;;;;;;;;;5055101;28;20321;-77
2022/07/01 12:02:18;;;;;;;4.20;0.70;;;;;;;;;;5055072;28;20068;-77
2022/07/01 12:04:44;;;;;;;6.07;0.80;;;;;;;;;;5054833;28;20029;-75
2022/07/01 12:07:11;;;;;;;3.90;0.85;;;;;;;;;;5054730;28;20047;-77
2022/07/01 12:09:38;;;;;;;4.53;0.70;;;;;;;;;;5055028;28;20079;-76
2022/07/01 12:12:04;;;;;;;4.00;0.98;;;;;;;;;;5055337;28;20041;-81
2022/07/01 12:14:35;;;;;;;3.88;0.60;;;;;;;;;;5046590;28;20033;-79
2022/07/01 12:17:03;;;;;;;5.53;0.63;;;;;;;;;;5033704;28;20080;-76
2022/07/01 12:19:39;;;;;;;4.22;0.60;;;;;;;;;;5049719;28;20025;-82
2022/07/01 12:22:08;;;;;;;4.20;0.60;;;;;;;;;;5055825;28;20017;-80
2022/07/01 12:24:34;;;;;;;2.85;0.70;;;;;;;;;;5055418;28;20463;-76
2022/07/01 12:27:02;;;;;;;5.53;0.60;;;;;;;;;;5054836;28;20402;-76
2022/07/01 12:29:29;;;;;;;2.90;0.55;;;;;;;;;;5054483;28;20416;-77
2022/07/01 12:32:05;;;;;;;3.58;0.60;;;;;;;;;;5054679;28;20101;-75
2022/07/01 12:34:40;;;;;;;2.83;0.52;;;;;;;;;;5054367;28;20044;-76
2022/07/01 12:37:29;;;;;;;4.40;0.93;;;;;;;;;;5054692;28;20025;-79
2022/07/01 12:39:57;;;;;;;3.78;0.80;;;;;;;;;;4980438;28;20034;-79
2022/07/01 12:42:27;;;;;;;3.25;0.80;;;;;;;;;;4979777;28;20040;-78
2022/07/01 12:44:54;;;;;;;3.60;0.70;;;;;;;;;;4987794;28;20441;-78
2022/07/01 12:47:30;;;;;;;5.57;0.80;;;;;;;;;;4992893;28;20073;-77
2022/07/01 12:50:11;;;;;;;5.43;1.40;;;;;;;;;;4992435;28;20424;-80
2022/07/01 12:52:38;;;;;;;6.78;1.00;;;;;;;;;;4993103;28;20045;-79
2022/07/01 12:55:13;;;;;;;2.03;0.77;;;;;;;;;;4993699;28;20030;-80
2022/07/01 12:57:39;;;;;;;2.22;0.70;;;;;;;;;;4992802;28;20519;-78
2022/07/01 13:00:06;;;;;;;6.47;1.10;;;;;;;;;;4992551;28;20473;-80
2022/07/01 13:02:32;;;;;;;3.65;0.60;;;;;;;;;;4975044;28;20083;-81
2022/07/01 13:04:58;;;;;;;3.47;1.10;;;;;;;;;;4973613;28;20504;-80
2022/07/01 13:07:24;;;;;;;4.63;0.77;;;;;;;;;;4973394;28;20026;-78
2022/07/01 13:09:50;;;;;;;4.97;0.70;;;;;;;;;;4973608;28;20055;-78
2022/07/01 13:12:16;;;;;;;2.55;0.80;;;;;;;;;;4973593;28;20030;-76
2022/07/01 13:14:43;;;;;;;9.30;0.80;;;;;;;;;;4973798;28;20034;-77
2022/07/01 13:17:10;;;;;;;5.10;0.98;;;;;;;;;;5039962;28;20505;-78
2022/07/01 13:19:36;;;;;;;3.33;0.82;;;;;;;;;;5068372;28;20021;-77
2022/07/01 13:22:03;;;;;;;6.15;1.02;;;;;;;;;;5051315;28;20024;-80
2022/07/01 13:24:29;;;;;;;2.90;1.00;;;;;;;;;;5054465;28;20428;-83
2022/07/01 13:26:55;;;;;;;3.38;0.80;;;;;;;;;;5054286;28;20021;-79
2022/07/01 13:29:21;;;;;;;6.85;0.80;;;;;;;;;;5053632;28;20045;-76
2022/07/01 13:31:47;;;;;;;4.40;1.05;;;;;;;;;;5052734;28;20386;-76
2022/07/01 13:34:13;;;;;;;7.07;1.60;;;;;;;;;;5052758;28;20497;-76
2022/07/01 13:36:39;;;;;;;4.97;1.15;;;;;;;;;;5052684;28;20094;-76
2022/07/01 13:39:05;;;;;;;7.30;1.08;;;;;;;;;;5052592;28;20367;-76
2022/07/01 13:41:31;;;;;;;6.50;1.35;;;;;;;;;;5052936;28;20013;-76
2022/07/01 13:43:57;;;;;;;9.98;1.90;;;;;;;;;;5052722;28;20515;-77
2022/07/01 13:46:23;;;;;;;1.90;0.90;;;;;;;;;;5052435;28;20029;-77
2022/07/01 13:48:49;;;;;;;4.03;1.45;;;;;;;;;;5051895;28;20028;-77
2022/07/01 13:51:16;;;;;;;3.97;1.10;;;;;;;;;;5049063;28;20078;-79
2022/07/01 13:53:42;;;;;;;5.55;1.20;;;;;;;;;;5052306;28;20079;-79
2022/07/01 13:56:08;;;;;;;4.50;1.20;;;;;;;;;;5050415;28;20017;-76
2022/07/01 13:58:34;;;;;;;5.88;1.00;;;;;;;;;;5052860;28;20068;-80
2022/07/01 14:01:00;;;;;;;3.65;1.02;;;;;;;;;;5052948;28;20059;-80
2022/07/01 14:03:27;;;;;;;5.75;1.23;;;;;;;;;;5052448;28;20040;-77
2022/07/01 14:05:53;;;;;;;11.10;1.40;;;;;;;;;;5063719;28;20116;-79
2022/07/01 14:08:19;;;;;;;4.47;1.83;;;;;;;;;;5052455;28;20037;-79
2022/07/01 14:10:45;;;;;;;5.03;1.70;;;;;;;;;;5045137;28;20468;-78
2022/07/01 14:13:12;;;;;;;6.72;1.42;;;;;;;;;;5051628;28;20029;-78
2022/07/01 14:15:38;;;;;;;5.80;1.50;;;;;;;;;;5052573;28;20029;-78
2022/07/01 14:18:04;;;;;;;5.00;1.23;;;;;;;;;;5053793;28;20016;-77
2022/07/01 14:20:30;;;;;;;6.55;1.67;;;;;;;;;;5057739;28;20081;-81
2022/07/01 14:22:56;;;;;;;4.75;1.48;;;;;;;;;;5051694;28;20044;-81
2022/07/01 14:25:23;;;;;;;3.50;1.40;;;;;;;;;;5054006;28;20072;-80
2022/07/01 14:27:49;;;;;;;3.65;1.33;;;;;;;;;;5052654;28;20029;-80
2022/07/01 14:30:16;;;;;;;5.18;1.20;;;;;;;;;;5052211;28;20035;-80
2022/07/01 14:32:42;;;;;;;6.30;1.45;;;;;;;;;;5055336;28;20017;-80
2022/07/01 14:35:08;;;;;;;5.28;1.13;;;;;;;;;;5053546;28;20017;-80
2022/07/01 14:37:36;;;;;;;9.75;1.42;;;;;;;;;;5058957;28;20052;-80
2022/07/01 14:40:03;;;;;;;4.25;1.42;;;;;;;;;;5056011;28;20064;-80
2022/07/01 14:42:29;;;;;;;6.38;1.35;;;;;;;;;;5050671;28;20025;-80
2022/07/01 14:44:56;;;;;;;4.55;1.35;;;;;;;;;;5052190;28;20074;-80
2022/07/01 14:47:22;;;;;;;3.63;1.20;;;;;;;;;;5052971;28;20023;-80